Time;durP1;ratioP1;P1;durP2;ratioP2;P2;SDS_P1;SDS_P2;PMS_P1;PMS_P2;Temp;Humidity;BMP_temperature;BMP_pressure;BME280_temperature;BME280_humidity;BME280_pressure;Samples;Min_cycle;Max_cycle;Signal;HPM_P1;HPM_P2
2021/06/14 00:06:59;;;;;;;2.80;1.80;;;;;;;10.40;63.84;100101.98;516576;1088;117300;-58
2021/06/14 00:17:07;;;;;;;3.67;1.80;;;;;;;10.25;64.26;100117.64;514902;1089;116442;-58
2021/06/14 00:27:14;;;;;;;6.00;1.77;;;;;;;10.11;64.87;100112.30;531228;1087;116953;-59
2021/06/14 00:37:21;;;;;;;6.07;1.57;;;;;;;10.05;65.04;100116.11;532526;1088;116829;-58
2021/06/14 00:47:28;;;;;;;4.80;2.17;;;;;;;9.97;65.33;100115.66;532540;1087;116659;-59
2021/06/14 00:57:36;;;;;;;4.30;2.83;;;;;;;9.79;65.81;100113.92;531376;1087;117212;-59
2021/06/14 01:07:42;;;;;;;4.60;2.23;;;;;;;9.56;66.46;100122.14;532615;1087;116772;-58
2021/06/14 01:18:00;;;;;;;3.13;2.10;;;;;;;9.34;67.18;100126.68;520905;1087;116567;-59
2021/06/14 01:28:06;;;;;;;;;;;;;;;9.10;68.06;100119.13;532536;1088;116743;-57
2021/06/14 01:38:14;;;;;;;4.70;2.47;;;;;;;8.97;68.04;100131.13;520902;1085;103317;-58
2021/06/14 01:48:22;;;;;;;3.73;1.97;;;;;;;8.77;69.21;100122.49;527951;1087;116354;-59
2021/06/14 01:58:30;;;;;;;6.35;2.80;;;;;;;8.69;69.48;100122.00;532590;1087;116814;-58
2021/06/14 02:08:36;;;;;;;6.18;1.60;;;;;;;8.57;69.86;100119.97;531843;1087;116964;-58
2021/06/14 02:18:43;;;;;;;4.53;1.87;;;;;;;8.52;70.43;100120.19;532518;1085;117212;-58
2021/06/14 02:28:49;;;;;;;3.63;2.43;;;;;;;8.45;70.43;100114.36;532520;1087;116617;-59
2021/06/14 02:38:57;;;;;;;3.87;2.23;;;;;;;8.40;70.64;100117.19;531812;1087;116652;-59
2021/06/14 02:49:04;;;;;;;7.70;2.48;;;;;;;8.74;71.21;100122.61;532550;1090;116882;-59
2021/06/14 02:59:12;;;;;;;6.43;2.23;;;;;;;11.96;69.45;100118.42;527650;1089;116703;-59
2021/06/14 03:09:19;;;;;;;4.35;2.55;;;;;;;15.08;64.51;100114.28;531484;1090;116121;-59
2021/06/14 03:19:27;;;;;;;2.73;2.20;;;;;;;15.54;60.80;100107.31;532603;1088;116538;-59
2021/06/14 03:29:35;;;;;;;8.40;4.00;;;;;;;16.30;55.91;100122.64;531840;1089;117347;-59
2021/06/14 03:39:43;;;;;;;3.90;2.50;;;;;;;14.56;57.81;100117.97;532534;1089;116301;-59
2021/06/14 03:49:49;;;;;;;7.03;2.73;;;;;;;13.69;59.88;100113.50;532544;1090;116340;-58
2021/06/14 03:59:55;;;;;;;6.90;3.35;;;;;;;21.58;53.68;100112.59;515250;1088;116556;-59
2021/06/14 04:10:02;;;;;;;5.47;3.40;;;;;;;27.46;45.73;100100.27;532529;1087;116931;-59
2021/06/14 04:20:10;;;;;;;9.10;3.27;;;;;;;30.92;39.28;100098.11;532505;1087;116463;-60
2021/06/14 04:30:18;;;;;;;8.07;3.43;;;;;;;33.43;34.36;100100.13;531754;1089;117088;-60
2021/06/14 04:40:24;;;;;;;9.05;4.10;;;;;;;34.74;31.28;100101.61;532602;1088;116187;-60
2021/06/14 04:50:31;;;;;;;9.00;3.97;;;;;;;35.90;27.80;100107.41;522883;1090;116428;-60
2021/06/14 05:00:37;;;;;;;5.63;3.83;;;;;;;37.56;24.98;100110.75;532234;1087;116650;-60
2021/06/14 05:10:45;;;;;;;5.18;4.20;;;;;;;36.64;23.75;100118.03;530093;1087;116852;-60
2021/06/14 05:20:52;;;;;;;5.38;3.80;;;;;;;38.98;22.44;100116.30;524426;1087;117971;-61
2021/06/14 05:30:58;;;;;;;6.50;3.33;;;;;;;39.62;21.46;100120.27;532602;1087;116566;-60
2021/06/14 05:41:05;;;;;;;7.65;4.50;;;;;;;42.25;19.54;100120.16;532454;1087;117510;-60
2021/06/14 05:51:11;;;;;;;5.75;3.85;;;;;;;42.61;18.59;100116.05;531845;1088;116172;-60
2021/06/14 06:01:18;;;;;;;5.43;3.53;;;;;;;40.24;17.49;100108.16;532601;1087;116785;-61
2021/06/14 06:11:24;;;;;;;4.63;3.93;;;;;;;42.57;17.13;100113.87;518369;1090;116428;-59
2021/06/14 06:21:31;;;;;;;5.35;3.58;;;;;;;42.26;16.94;100121.80;520873;1089;116818;-62
2021/06/14 06:31:38;;;;;;;6.77;2.97;;;;;;;44.47;15.56;100116.98;532470;1088;116449;-62
2021/06/14 06:41:45;;;;;;;4.75;3.30;;;;;;;46.20;14.76;100109.17;523121;1089;116779;-61
2021/06/14 06:51:51;;;;;;;5.15;3.53;;;;;;;44.01;14.34;100103.09;531544;1088;115820;-61
2021/06/14 07:01:58;;;;;;;3.80;2.90;;;;;;;45.85;13.61;100115.50;532580;1088;117229;-61
2021/06/14 07:12:05;;;;;;;3.78;3.48;;;;;;;47.36;13.13;100109.34;531775;1089;118611;-62
2021/06/14 07:22:13;;;;;;;7.30;3.30;;;;;;;46.25;12.35;100108.99;521995;1089;117391;-64
2021/06/14 07:32:20;;;;;;;3.60;3.13;;;;;;;47.45;11.91;100100.15;532422;1088;117215;-61
2021/06/14 07:42:26;;;;;;;2.53;2.33;;;;;;;47.32;10.69;100102.02;531762;1087;116872;-58
2021/06/14 07:52:33;;;;;;;3.97;2.20;;;;;;;36.30;14.82;100099.91;523239;1086;117125;-63
2021/06/14 08:02:40;;;;;;;6.63;2.57;;;;;;;29.93;20.00;100099.27;525890;1087;115727;-61
2021/06/14 08:12:50;;;;;;;5.03;2.10;;;;;;;27.07;22.99;100107.89;532533;1088;116438;-59
2021/06/14 08:33:22;;;;;;;5.00;1.73;;;;;;;25.32;26.76;100108.41;531744;1088;116725;-59
2021/06/14 08:43:32;;;;;;;4.43;1.87;;;;;;;24.28;27.56;100106.98;532508;1088;117826;-56
2021/06/14 08:53:39;;;;;;;4.17;2.23;;;;;;;24.07;28.23;100108.41;521651;1088;116555;-57
2021/06/14 09:03:45;;;;;;;3.93;2.00;;;;;;;23.08;28.92;100101.38;523060;1087;116816;-59
2021/06/14 09:13:52;;;;;;;3.63;2.00;;;;;;;23.00;29.47;100104.90;518874;1087;116468;-61
2021/06/14 09:24:01;;;;;;;3.35;2.10;;;;;;;22.89;30.26;100092.66;531776;1089;117053;-59
2021/06/14 09:34:08;;;;;;;4.58;2.80;;;;;;;22.55;30.68;100087.46;524683;1087;116424;-60
2021/06/14 09:44:27;;;;;;;3.57;2.13;;;;;;;22.97;29.98;100080.30;532538;1087;116612;-57
2021/06/14 09:54:35;;;;;;;5.13;1.90;;;;;;;22.77;30.74;100068.08;527886;1086;116958;-59
2021/06/14 10:04:42;;;;;;;4.50;1.73;;;;;;;22.64;30.79;100068.56;528279;1086;116017;-59
2021/06/14 10:14:54;;;;;;;5.40;2.30;;;;;;;22.20;31.23;100068.78;523043;1088;116926;-60
2021/06/14 10:25:01;;;;;;;4.87;2.33;;;;;;;22.36;31.34;100058.14;532558;1090;116267;-60
2021/06/14 10:35:11;;;;;;;8.80;3.50;;;;;;;22.33;31.53;100063.79;532523;1088;116272;-59
2021/06/14 10:45:22;;;;;;;4.40;2.43;;;;;;;21.93;31.85;100044.82;531797;1088;116984;-60
2021/06/14 10:55:31;;;;;;;4.60;1.57;;;;;;;22.08;32.43;100034.31;517902;1088;116796;-60
2021/06/14 11:05:43;;;;;;;3.67;1.50;;;;;;;21.97;31.45;100029.27;531790;1089;116316;-58
2021/06/14 11:15:57;;;;;;;1.80;1.03;;;;;;;21.96;31.41;100024.92;532521;1088;116962;-58
2021/06/14 11:26:04;;;;;;;5.13;1.70;;;;;;;22.33;31.40;100006.80;532547;1088;116466;-57
2021/06/14 11:36:19;;;;;;;1.50;1.35;;;;;;;22.90;30.76;100005.98;516081;1087;116613;-59
2021/06/14 11:46:25;;;;;;;5.33;1.70;;;;;;;22.57;30.71;100006.03;532549;1085;116744;-60
2021/06/14 11:56:36;;;;;;;4.17;1.50;;;;;;;22.28;30.68;99993.07;531357;1087;117129;-59
2021/06/14 12:06:47;;;;;;;3.58;1.10;;;;;;;22.70;30.32;99993.98;526523;1087;116467;-59
2021/06/14 12:17:00;;;;;;;2.90;1.57;;;;;;;22.49;30.06;99981.94;518022;1088;116134;-60
2021/06/14 12:27:09;;;;;;;3.43;1.10;;;;;;;22.41;30.14;99969.36;517057;1087;116475;-59
2021/06/14 12:37:20;;;;;;;3.93;1.47;;;;;;;22.20;30.05;99961.80;531697;1087;115910;-61
2021/06/14 12:47:28;;;;;;;2.50;1.20;;;;;;;22.25;29.80;99960.31;532531;1087;116581;-63
2021/06/14 12:57:39;;;;;;;4.90;1.40;;;;;;;22.24;30.18;99944.45;532542;1087;117804;-63
2021/06/14 13:07:56;;;;;;;5.00;1.40;;;;;;;22.22;30.47;99959.80;532606;1087;116986;-62
2021/06/14 13:18:03;;;;;;;5.17;1.97;;;;;;;22.40;30.41;99939.09;500608;1087;10001175;-58
2021/06/14 13:28:09;;;;;;;;;;;;;;;22.36;29.79;99934.23;518251;1087;117526;-59
2021/06/14 13:38:23;;;;;;;2.60;1.90;;;;;;;22.08;30.33;99922.02;530583;1087;103332;-57
2021/06/14 13:48:39;;;;;;;2.37;2.07;;;;;;;21.72;30.63;99919.63;531823;1089;116125;-59
2021/06/14 13:58:47;;;;;;;3.67;1.80;;;;;;;21.55;30.91;99905.35;532526;1087;115840;-56
2021/06/14 14:08:54;;;;;;;2.93;1.50;;;;;;;21.56;31.01;99915.03;524961;1086;117421;-56
2021/06/14 14:19:03;;;;;;;5.63;1.70;;;;;;;21.73;31.38;99902.59;532503;1087;116297;-56
2021/06/14 14:29:16;;;;;;;6.03;3.23;;;;;;;21.50;31.05;99883.64;515694;1088;115589;-53
2021/06/14 14:39:25;;;;;;;3.73;2.10;;;;;;;21.68;31.88;99865.66;531851;1089;117357;-56
2021/06/14 14:49:29;;;;;;;;;;;;;;;21.63;31.87;99864.45;532675;1088;116784;-56
2021/06/14 14:59:36;;;;;;;11.40;2.60;;;;;;;21.62;31.87;99854.77;529756;1089;102214;-56
2021/06/14 15:09:42;;;;;;;2.83;1.43;;;;;;;21.80;31.59;99858.18;532548;1087;116282;-56
2021/06/14 15:19:49;;;;;;;3.03;1.20;;;;;;;21.64;31.44;99850.09;532619;1087;117055;-55
2021/06/14 15:29:56;;;;;;;1.70;1.40;;;;;;;21.61;30.91;99840.59;531871;1087;117933;-55
2021/06/14 15:40:02;;;;;;;4.43;1.40;;;;;;;21.48;30.95;99834.89;532561;1087;116837;-57
2021/06/14 15:50:11;;;;;;;2.77;1.50;;;;;;;21.45;30.77;99848.55;530315;1089;116736;-55
2021/06/14 16:00:20;;;;;;;5.00;1.68;;;;;;;21.47;31.74;99838.53;531876;1088;116640;-59
2021/06/14 16:10:27;;;;;;;1.93;1.37;;;;;;;21.50;31.79;99840.91;532249;1088;116301;-56
2021/06/14 16:20:33;;;;;;;4.37;2.00;;;;;;;21.53;32.38;99844.09;527144;1088;115838;-54
2021/06/14 16:30:40;;;;;;;2.60;1.27;;;;;;;21.54;32.26;99836.89;532529;1087;116895;-55
2021/06/14 16:40:46;;;;;;;3.80;2.70;;;;;;;21.53;32.52;99835.23;518661;1086;116411;-55
2021/06/14 16:51:04;;;;;;;4.35;1.55;;;;;;;21.45;32.47;99819.17;526911;1087;116015;-56
2021/06/14 17:01:11;;;;;;;4.43;2.83;;;;;;;21.35;32.41;99820.15;532506;1087;116505;-57
2021/06/14 17:11:17;;;;;;;4.20;2.20;;;;;;;21.19;32.76;99823.64;514630;1087;10001475;-56
2021/06/14 17:21:24;;;;;;;3.70;2.00;;;;;;;20.99;32.60;99818.55;524546;1086;117130;-57
2021/06/14 17:31:31;;;;;;;2.10;1.63;;;;;;;20.84;33.14;99828.99;517804;1087;115719;-56
2021/06/14 17:41:38;;;;;;;4.10;1.60;;;;;;;20.60;33.73;99826.99;515573;1088;116407;-56
2021/06/14 17:51:50;;;;;;;4.10;2.10;;;;;;;20.81;34.38;99820.44;519386;1088;116249;-56
2021/06/14 18:02:01;;;;;;;5.80;1.97;;;;;;;20.95;34.04;99813.70;519049;1088;116499;-55
2021/06/14 18:12:09;;;;;;;4.07;1.57;;;;;;;20.24;35.05;99817.28;514701;1087;116172;-59
2021/06/14 18:22:16;;;;;;;11.83;4.03;;;;;;;19.74;36.62;99826.67;515720;1087;116699;-58
2021/06/14 18:32:23;;;;;;;7.50;1.93;;;;;;;19.16;37.85;99832.25;521779;1088;116671;-58
2021/06/14 18:42:31;;;;;;;5.63;2.53;;;;;;;18.63;40.00;99834.53;516537;1088;116529;-58
2021/06/14 18:52:37;;;;;;;10.40;2.53;;;;;;;18.21;41.13;99834.91;518774;1089;117355;-59
2021/06/14 19:02:44;;;;;;;8.07;2.77;;;;;;;17.73;42.95;99839.25;526343;1087;117030;-58
2021/06/14 19:12:51;;;;;;;10.60;3.43;;;;;;;17.31;43.70;99850.89;524917;1087;117273;-58
2021/06/14 19:23:01;;;;;;;6.03;3.58;;;;;;;16.86;46.06;99852.97;529903;1087;116487;-58
2021/06/14 19:33:08;;;;;;;8.30;3.50;;;;;;;16.49;47.44;99854.30;526605;1089;116072;-59
2021/06/14 19:43:15;;;;;;;9.87;3.97;;;;;;;16.09;48.70;99865.58;532451;1089;116408;-60
2021/06/14 19:53:21;;;;;;;8.13;4.50;;;;;;;15.73;49.64;99867.62;519051;1089;115979;-59
2021/06/14 20:03:28;;;;;;;6.43;4.27;;;;;;;15.34;51.39;99868.06;521797;1089;116850;-62
2021/06/14 20:13:35;;;;;;;8.80;6.57;;;;;;;14.97;52.48;99862.08;514690;1087;116424;-59
2021/06/14 20:23:42;;;;;;;5.93;5.07;;;;;;;14.66;53.85;99868.88;522047;1088;116443;-57
2021/06/14 20:33:49;;;;;;;7.77;4.63;;;;;;;14.29;54.92;99869.88;514896;1088;116818;-58
2021/06/14 20:43:57;;;;;;;10.90;5.40;;;;;;;14.00;55.45;99872.91;515388;1089;116294;-58
2021/06/14 20:54:03;;;;;;;11.53;6.27;;;;;;;13.75;56.61;99873.86;514129;1087;116678;-58
2021/06/14 21:04:10;;;;;;;;;;;;;;;13.54;57.83;99879.73;520561;1087;174587;-59
2021/06/14 21:14:17;;;;;;;9.10;5.20;;;;;;;13.36;58.40;99879.23;520205;1088;104980;-59
2021/06/14 21:24:23;;;;;;;14.00;6.50;;;;;;;13.20;59.27;99890.88;531649;1089;115975;-59
2021/06/14 21:34:30;;;;;;;12.73;6.73;;;;;;;13.02;59.81;99893.83;532465;1087;116715;-58
2021/06/14 21:44:37;;;;;;;11.20;6.50;;;;;;;12.81;59.95;99880.36;528452;1087;116455;-59
2021/06/14 21:54:43;;;;;;;11.87;7.33;;;;;;;12.57;60.53;99881.09;520905;1087;172980;-59
2021/06/14 22:04:50;;;;;;;11.70;7.73;;;;;;;12.36;61.44;99875.50;519714;1087;117063;-58
2021/06/14 22:14:56;;;;;;;13.73;7.90;;;;;;;12.18;62.19;99880.20;514921;1089;117702;-59
2021/06/14 22:25:03;;;;;;;10.05;7.35;;;;;;;11.98;62.76;99887.58;515723;1087;116813;-58
2021/06/14 22:35:13;;;;;;;13.00;7.17;;;;;;;11.78;63.44;99889.70;520266;1087;116826;-57
2021/06/14 22:45:21;;;;;;;9.50;6.60;;;;;;;11.59;63.43;99889.19;531851;1087;116235;-59
2021/06/14 22:55:26;;;;;;;;;;;;;;;11.47;64.08;99872.42;527450;1087;116384;-58
2021/06/14 23:05:33;;;;;;;8.25;7.30;;;;;;;11.31;64.16;99867.28;522716;1088;103988;-52
2021/06/14 23:15:39;;;;;;;9.17;7.80;;;;;;;11.16;65.10;99854.17;518679;1087;177018;-59
2021/06/14 23:25:46;;;;;;;8.87;7.23;;;;;;;11.03;65.43;99858.50;532562;1087;117018;-59
2021/06/14 23:35:53;;;;;;;10.58;7.78;;;;;;;10.96;65.76;99844.87;531888;1088;116926;-58
2021/06/14 23:45:59;;;;;;;11.47;7.23;;;;;;;10.88;66.43;99824.33;524296;1087;116386;-58
2021/06/14 23:56:06;;;;;;;9.37;8.43;;;;;;;10.74;66.22;99833.08;515458;1087;116364;-57
